createdAt,value
2018-09-08T00:00:30.827Z,998.57
2018-09-08T00:01:40.893Z,998.58
2018-09-08T00:02:50.965Z,998.56
2018-09-08T00:04:01.022Z,998.59
2018-09-08T00:05:11.105Z,998.61
2018-09-08T00:06:21.217Z,998.64
2018-09-08T00:07:31.034Z,998.62
2018-09-08T00:08:41.119Z,998.67
2018-09-08T00:09:51.249Z,998.67
2018-09-08T00:11:01.068Z,998.64
2018-09-08T00:12:11.225Z,998.66
2018-09-08T00:13:21.288Z,998.71
2018-09-08T00:14:31.353Z,998.67
2018-09-08T00:15:41.437Z,998.7
2018-09-08T00:16:51.250Z,998.71
2018-09-08T00:18:01.107Z,998.74
2018-09-08T00:19:11.184Z,998.71
2018-09-08T00:20:21.279Z,998.72
2018-09-08T00:21:31.300Z,998.78
2018-09-08T00:22:41.381Z,998.76
2018-09-08T00:23:51.228Z,998.74
2018-09-08T00:25:01.063Z,998.79
2018-09-08T00:26:11.135Z,998.73
2018-09-08T00:27:21.200Z,998.82
2018-09-08T00:28:31.045Z,998.77
2018-09-08T00:29:41.164Z,998.8
2018-09-08T00:30:51.241Z,998.78
2018-09-08T00:32:01.328Z,998.73
2018-09-08T00:33:11.121Z,998.77
2018-09-08T00:34:21.210Z,998.8
2018-09-08T00:35:31.325Z,998.74
2018-09-08T00:36:41.416Z,998.84
2018-09-08T00:37:51.481Z,998.77
2018-09-08T00:39:01.589Z,998.77
2018-09-08T00:40:11.662Z,998.79
2018-09-08T00:41:21.725Z,998.83
2018-09-08T00:42:31.811Z,998.77
2018-09-08T00:43:41.898Z,998.81
2018-09-08T00:44:51.956Z,998.77
2018-09-08T00:46:02.036Z,998.79
2018-09-08T00:47:11.647Z,998.77
2018-09-08T00:48:21.242Z,998.78
2018-09-08T00:49:31.322Z,998.75
2018-09-08T00:50:41.387Z,998.78
2018-09-08T00:51:51.448Z,998.71
2018-09-08T00:53:01.529Z,998.73
2018-09-08T00:54:11.607Z,998.8
2018-09-08T00:55:21.688Z,998.77
2018-09-08T00:56:31.757Z,998.78
2018-09-08T00:57:41.558Z,998.78
2018-09-08T00:58:51.105Z,998.76
2018-09-08T01:00:00.899Z,998.81
2018-09-08T01:01:10.693Z,998.81
2018-09-08T01:02:20.764Z,998.81
2018-09-08T01:03:30.837Z,998.86
2018-09-08T01:04:40.790Z,998.86
2018-09-08T01:05:50.882Z,998.84
2018-09-08T01:07:00.981Z,998.84
2018-09-08T01:08:10.765Z,998.82
2018-09-08T01:09:20.829Z,998.84
2018-09-08T01:10:30.672Z,998.82
2018-09-08T01:11:40.202Z,998.85
2018-09-08T01:12:50.256Z,998.91
2018-09-08T01:13:59.545Z,998.87
2018-09-08T01:15:09.649Z,998.9
2018-09-08T01:16:19.456Z,998.86
2018-09-08T01:17:29.516Z,998.86
2018-09-08T01:18:39.572Z,998.88
2018-09-08T01:19:49.639Z,998.91
2018-09-08T01:20:59.446Z,998.88
2018-09-08T01:22:09.508Z,998.9
2018-09-08T01:23:19.309Z,998.91
2018-09-08T01:24:28.842Z,998.89
2018-09-08T01:25:38.658Z,998.94
2018-09-08T01:26:48.450Z,998.93
2018-09-08T01:27:58.511Z,998.97
2018-09-08T01:29:08.583Z,998.99
2018-09-08T01:30:18.903Z,998.96
2018-09-08T01:31:28.979Z,998.99
2018-09-08T01:32:39.047Z,998.92
2018-09-08T01:33:49.154Z,999.02
2018-09-08T01:34:59.229Z,999.02
2018-09-08T01:36:09.316Z,999.05
2018-09-08T01:37:19.387Z,999
2018-09-08T01:38:29.209Z,999
2018-09-08T01:39:39.345Z,999.03
2018-09-08T01:40:49.142Z,999.14
2018-09-08T01:41:58.943Z,999.02
2018-09-08T01:43:09.036Z,999.12
2018-09-08T01:44:18.584Z,999.12
2018-09-08T01:45:28.447Z,999.11
2018-09-08T01:46:38.524Z,999.11
2018-09-08T01:47:48.321Z,999.09
2018-09-08T01:48:58.393Z,999.05
2018-09-08T01:50:08.601Z,999.1
2018-09-08T01:51:18.668Z,999.08
2018-09-08T01:52:28.733Z,999.13
2018-09-08T01:53:38.854Z,999.15
2018-09-08T01:54:48.926Z,999.14
2018-09-08T01:55:58.752Z,999.11
2018-09-08T01:57:08.607Z,999.12
2018-09-08T01:58:18.709Z,999.11
2018-09-08T01:59:28.781Z,999.13
2018-09-08T02:00:38.846Z,999.2
2018-09-08T02:01:48.921Z,999.2
2018-09-08T02:02:59.031Z,999.17
2018-09-08T02:04:09.105Z,999.2
2018-09-08T02:05:19.174Z,999.17
2018-09-08T02:06:29.247Z,999.23
2018-09-08T02:07:39.331Z,999.19
2018-09-08T02:08:49.394Z,999.2
2018-09-08T02:09:59.470Z,999.22
2018-09-08T02:11:09.551Z,999.25
2018-09-08T02:12:19.622Z,999.31
2018-09-08T02:13:29.693Z,999.25
2018-09-08T02:14:39.767Z,999.31
2018-09-08T02:15:49.846Z,999.3
2018-09-08T02:16:59.928Z,999.3
2018-09-08T02:18:10.017Z,999.32
2018-09-08T02:19:20.089Z,999.31
2018-09-08T02:20:30.160Z,999.29
2018-09-08T02:21:40.225Z,999.37
2018-09-08T02:22:50.288Z,999.35
2018-09-08T02:24:00.359Z,999.39
2018-09-08T02:25:10.423Z,999.34
2018-09-08T02:26:20.378Z,999.37
2018-09-08T02:27:30.191Z,999.37
2018-09-08T02:28:39.993Z,999.4
2018-09-08T02:29:50.089Z,999.38
2018-09-08T02:30:59.892Z,999.38
2018-09-08T02:32:10.055Z,999.38
2018-09-08T02:33:19.871Z,999.38
2018-09-08T02:34:29.950Z,999.41
2018-09-08T02:35:40.058Z,999.41
2018-09-08T02:36:50.141Z,999.43
2018-09-08T02:38:00.419Z,999.42
2018-09-08T02:39:10.218Z,999.37
2018-09-08T02:40:20.290Z,999.39
2018-09-08T02:41:30.086Z,999.36
2018-09-08T02:42:39.912Z,999.33
2018-09-08T02:43:50.020Z,999.37
2018-09-08T02:44:59.835Z,999.38
2018-09-08T02:46:09.933Z,999.38
2018-09-08T02:47:19.995Z,999.37
2018-09-08T02:48:30.050Z,999.41
2018-09-08T02:49:40.231Z,999.4
2018-09-08T02:50:50.028Z,999.39
2018-09-08T02:52:00.116Z,999.38
2018-09-08T02:53:10.175Z,999.38
2018-09-08T02:54:20.252Z,999.35
2018-09-08T02:55:30.153Z,999.45
2018-09-08T02:56:40.228Z,999.45
2018-09-08T02:57:50.039Z,999.44
2018-09-08T02:59:00.110Z,999.47
2018-09-08T03:00:09.918Z,999.51
2018-09-08T03:01:19.716Z,999.54
2018-09-08T03:02:29.787Z,999.5
2018-09-08T03:35:07.183Z,999.76
2018-09-08T03:36:17.007Z,999.77
2018-09-08T03:37:27.068Z,999.78
2018-09-08T03:38:36.860Z,999.84
2018-09-08T03:39:46.399Z,999.83
2018-09-08T03:40:56.460Z,999.83
2018-09-08T03:42:06.529Z,999.83
2018-09-08T03:43:16.333Z,999.83
2018-09-08T03:44:26.132Z,999.91
2018-09-08T03:45:35.947Z,999.92
2018-09-08T03:46:45.752Z,999.92
2018-09-08T03:47:55.554Z,999.89
2018-09-08T03:49:06.144Z,999.96
2018-09-08T03:50:15.953Z,1000.04
2018-09-08T03:51:25.760Z,999.89
2018-09-08T03:52:35.931Z,999.93
2018-09-08T03:53:45.480Z,999.88
2018-09-08T03:54:55.538Z,999.81
2018-09-08T03:56:06.114Z,999.85
2018-09-08T03:57:16.192Z,999.87
2018-09-08T03:58:26.322Z,999.89
2018-09-08T03:59:36.442Z,999.95
2018-09-08T04:00:46.264Z,999.87
2018-09-08T04:01:56.330Z,999.94
2018-09-08T04:03:06.138Z,999.98
2018-09-08T04:04:16.227Z,1000.03
2018-09-08T04:05:26.078Z,999.93
2018-09-08T04:06:36.418Z,999.96
2018-09-08T04:07:46.228Z,1000.05
2018-09-08T04:08:56.310Z,1000.04
2018-09-08T04:10:06.358Z,1000.05
2018-09-08T04:11:15.931Z,1000.05
2018-09-08T04:12:25.655Z,1000.03
2018-09-08T04:13:35.729Z,1000.05
2018-09-08T04:14:45.276Z,1000.05
2018-09-08T04:15:56.282Z,1000.11
2018-09-08T04:17:06.082Z,1000.12
2018-09-08T04:18:15.944Z,1000.07
2018-09-08T04:19:26.092Z,1000.13
2018-09-08T04:20:36.155Z,1000.13
2018-09-08T04:21:46.057Z,1000.14
2018-09-08T04:22:56.136Z,1000.18
2018-09-08T04:24:06.221Z,1000.21
2018-09-08T04:25:16.770Z,1000.21
2018-09-08T04:26:26.847Z,1000.21
2018-09-08T04:27:36.978Z,1000.23
2018-09-08T04:28:46.783Z,1000.27
2018-09-08T04:29:56.867Z,1000.29
2018-09-08T04:31:06.984Z,1000.31
2018-09-08T04:32:16.787Z,1000.33
2018-09-08T04:33:26.906Z,1000.32
2018-09-08T04:34:36.727Z,1000.31
2018-09-08T04:35:46.788Z,1000.28
2018-09-08T04:36:56.844Z,1000.38
2018-09-08T04:38:06.660Z,1000.42
2018-09-08T04:39:16.466Z,1000.42
2018-09-08T04:40:26.532Z,1000.4
2018-09-08T04:41:36.605Z,1000.41
2018-09-08T04:42:46.683Z,1000.42
2018-09-08T04:43:56.507Z,1000.39
2018-09-08T04:45:06.586Z,1000.37
2018-09-08T04:46:16.920Z,1000.42
2018-09-08T04:47:26.982Z,1000.44
2018-09-08T04:48:36.800Z,1000.46
2018-09-08T04:49:46.866Z,1000.51
2018-09-08T04:50:56.981Z,1000.42
2018-09-08T04:52:07.054Z,1000.55
2018-09-08T04:53:17.126Z,1000.53
2018-09-08T04:54:26.688Z,1000.59
2018-09-08T04:55:36.550Z,1000.6
2018-09-08T04:56:46.633Z,1000.59
2018-09-08T04:57:56.729Z,1000.6
2018-09-08T04:59:06.536Z,1000.66
2018-09-08T05:00:16.366Z,1000.63
2018-09-08T05:01:26.175Z,1000.66
2018-09-08T05:02:36.031Z,1000.69
2018-09-08T05:03:45.860Z,1000.81
2018-09-08T05:04:55.934Z,1000.8
2018-09-08T05:06:06.151Z,1000.74
2018-09-08T05:07:16.248Z,1000.77
2018-09-08T05:08:26.325Z,1000.73
2018-09-08T05:09:36.398Z,1000.71
2018-09-08T05:10:46.215Z,1000.75
2018-09-08T05:11:56.313Z,1000.77
2018-09-08T05:13:06.378Z,1000.78
2018-09-08T05:14:16.468Z,1000.77
2018-09-08T05:15:26.563Z,1000.78
2018-09-08T05:16:36.370Z,1000.83
2018-09-08T05:17:46.498Z,1000.74
2018-09-08T05:18:56.366Z,1000.83
2018-09-08T05:20:06.452Z,1000.75
2018-09-08T05:21:16.523Z,1000.78
2018-09-08T05:22:26.596Z,1000.8
2018-09-08T05:23:36.683Z,1000.9
2018-09-08T05:24:46.769Z,1000.83
2018-09-08T05:25:56.851Z,1000.86
2018-09-08T05:27:06.934Z,1000.9
2018-09-08T05:28:16.499Z,1000.87
2018-09-08T05:29:26.080Z,1000.93
2018-09-08T05:30:36.162Z,1000.93
2018-09-08T05:31:46.243Z,1000.88
2018-09-08T05:32:56.327Z,1000.89
2018-09-08T05:34:06.145Z,1000.92
2018-09-08T05:35:16.221Z,1000.91
2018-09-08T05:36:26.298Z,1000.89
2018-09-08T05:37:36.385Z,1000.92
2018-09-08T05:38:46.464Z,1000.92
2018-09-08T05:39:56.651Z,1000.94
2018-09-08T05:41:06.718Z,1000.97
2018-09-08T05:42:16.786Z,1000.99
2018-09-08T05:43:26.878Z,1001.07
2018-09-08T05:44:36.971Z,1001.04
2018-09-08T05:45:47.146Z,1001.02
2018-09-08T05:46:57.237Z,1000.98
2018-09-08T05:48:07.310Z,1001.01
2018-09-08T05:49:17.125Z,1001.07
2018-09-08T05:50:27.209Z,1001.07
2018-09-08T05:51:37.293Z,1001.17
2018-09-08T05:52:47.374Z,1001.12
2018-09-08T05:53:57.469Z,1001.13
2018-09-08T05:55:07.546Z,1001.07
2018-09-08T05:56:17.651Z,1001.08
2018-09-08T05:57:27.724Z,1001.13
2018-09-08T05:58:37.818Z,1001.18
2018-09-08T05:59:47.962Z,1001.21
2018-09-08T06:00:57.792Z,1001.21
2018-09-08T06:02:08.334Z,1001.15
2018-09-08T06:03:18.150Z,1001.17
2018-09-08T06:04:27.965Z,1001.2
2018-09-08T06:05:38.045Z,1001.25
2018-09-08T06:06:48.162Z,1001.24
2018-09-08T06:07:58.263Z,1001.2
2018-09-08T06:09:08.371Z,1001.27
2018-09-08T06:10:18.657Z,1001.23
2018-09-08T06:11:29.207Z,1001.28
2018-09-08T06:12:39.271Z,1001.27
2018-09-08T06:13:49.362Z,1001.29
2018-09-08T06:14:59.445Z,1001.3
2018-09-08T06:16:09.361Z,1001.29
2018-09-08T06:17:19.448Z,1001.33
2018-09-08T06:18:29.722Z,1001.39
2018-09-08T06:19:39.625Z,1001.42
2018-09-08T06:20:49.990Z,1001.39
2018-09-08T06:22:00.308Z,1001.39
2018-09-08T06:23:10.390Z,1001.37
2018-09-08T06:24:20.523Z,1001.41
2018-09-08T06:25:30.893Z,1001.37
2018-09-08T06:26:41.152Z,1001.44
2018-09-08T06:27:50.992Z,1001.47
2018-09-08T06:29:01.298Z,1001.49
2018-09-08T06:30:11.426Z,1001.46
2018-09-08T06:31:21.262Z,1001.48
2018-09-08T06:32:31.343Z,1001.52
2018-09-08T06:33:41.533Z,1001.49
2018-09-08T06:34:51.914Z,1001.54
2018-09-08T06:36:02.057Z,1001.51
2018-09-08T06:37:12.122Z,1001.49
2018-09-08T06:38:22.205Z,1001.55
2018-09-08T06:39:32.294Z,1001.6
2018-09-08T06:40:42.392Z,1001.53
2018-09-08T06:41:52.481Z,1001.57
2018-09-08T06:43:02.523Z,1001.58
2018-09-08T06:44:12.598Z,1001.58
2018-09-08T06:45:22.727Z,1001.58
2018-09-08T06:46:32.807Z,1001.6
2018-09-08T06:47:42.625Z,1001.58
2018-09-08T06:48:52.707Z,1001.73
2018-09-08T06:50:02.798Z,1001.63
2018-09-08T06:51:12.892Z,1001.61
2018-09-08T06:52:22.979Z,1001.68
2018-09-08T06:53:33.070Z,1001.72
2018-09-08T06:54:43.147Z,1001.72
2018-09-08T06:55:53.225Z,1001.69
2018-09-08T06:57:03.300Z,1001.74
2018-09-08T06:58:13.391Z,1001.76
2018-09-08T06:59:23.206Z,1001.82
2018-09-08T07:00:32.757Z,1001.74
2018-09-08T07:01:42.852Z,1001.87
2018-09-08T07:02:53.022Z,1001.87
2018-09-08T07:04:03.311Z,1001.91
2018-09-08T07:05:12.868Z,1001.85
2018-09-08T07:06:22.961Z,1001.92
2018-09-08T07:07:33.034Z,1001.89
2018-09-08T07:08:43.178Z,1001.92
2018-09-08T07:09:53.267Z,1001.97
2018-09-08T07:11:03.560Z,1001.95
2018-09-08T07:12:13.384Z,1002.03
2018-09-08T07:13:23.474Z,1001.88
2018-09-08T07:14:33.347Z,1001.93
2018-09-08T07:15:43.424Z,1001.94
2018-09-08T07:16:53.493Z,1001.92
2018-09-08T07:18:03.695Z,1001.97
2018-09-08T07:19:13.773Z,1002.02
2018-09-08T07:20:23.851Z,1002.02
2018-09-08T07:21:33.937Z,1002.06
2018-09-08T07:22:43.773Z,1002.05
2018-09-08T07:23:53.863Z,1002.08
2018-09-08T07:25:04.070Z,1002.06
2018-09-08T07:26:14.322Z,1002.11
2018-09-08T07:27:24.182Z,1002.13
2018-09-08T07:28:34.017Z,1002.11
2018-09-08T07:29:43.842Z,1002.17
2018-09-08T07:30:53.960Z,1002.2
2018-09-08T07:32:04.391Z,1002.18
2018-09-08T07:33:14.196Z,1002.15
2018-09-08T07:34:24.027Z,1002.22
2018-09-08T07:35:34.117Z,1002.22
2018-09-08T07:36:44.230Z,1002.18
2018-09-08T07:37:54.130Z,1002.23
2018-09-08T07:39:04.261Z,1002.17
2018-09-08T07:40:14.139Z,1002.2
2018-09-08T07:41:24.158Z,1002.17
2018-09-08T07:42:34.298Z,1002.21
2018-09-08T07:43:44.344Z,1002.2
2018-09-08T07:44:54.431Z,1002.24
2018-09-08T07:46:04.541Z,1002.3
2018-09-08T07:47:14.885Z,1002.24
2018-09-08T07:48:24.494Z,1002.19
2018-09-08T07:49:34.659Z,1002.26
2018-09-08T07:50:44.757Z,1002.27
2018-09-08T07:51:54.849Z,1002.19
2018-09-08T07:53:05.026Z,1002.23
2018-09-08T07:54:15.465Z,1002.15
2018-09-08T07:55:25.663Z,1002.22
2018-09-08T07:56:35.795Z,1002.28
2018-09-08T07:57:45.906Z,1002.27
2018-09-08T07:58:56.027Z,1002.27
2018-09-08T08:00:05.866Z,1002.3
2018-09-08T08:01:17.033Z,1002.31
2018-09-08T08:02:27.131Z,1002.32
2018-09-08T08:03:36.964Z,1002.34
2018-09-08T08:04:47.052Z,1002.35
2018-09-08T08:05:57.167Z,1002.36
2018-09-08T08:07:07.322Z,1002.39
2018-09-08T08:08:17.441Z,1002.31
2018-09-08T08:09:27.554Z,1002.39
2018-09-08T08:10:37.646Z,1002.36
2018-09-08T08:11:47.755Z,1002.36
2018-09-08T08:12:57.913Z,1002.44
2018-09-08T08:14:08.051Z,1002.44
2018-09-08T08:15:18.167Z,1002.45
2018-09-08T08:16:28.264Z,1002.39
2018-09-08T08:17:38.374Z,1002.45
2018-09-08T08:18:48.264Z,1002.47
2018-09-08T08:19:58.093Z,1002.45
2018-09-08T08:21:07.947Z,1002.46
2018-09-08T08:22:18.053Z,1002.42
2018-09-08T08:23:28.154Z,1002.53
2018-09-08T08:24:38.243Z,1002.44
2018-09-08T08:25:48.341Z,1002.47
2018-09-08T08:26:58.192Z,1002.49
2018-09-08T08:28:08.545Z,1002.5
2018-09-08T08:29:19.119Z,1002.51
2018-09-08T08:30:29.268Z,1002.47
2018-09-08T08:31:39.386Z,1002.44
2018-09-08T08:32:49.210Z,1002.46
2018-09-08T08:33:59.316Z,1002.53
2018-09-08T08:35:09.636Z,1002.49
2018-09-08T08:36:19.522Z,1002.47
2018-09-08T08:37:29.611Z,1002.47
2018-09-08T08:38:39.729Z,1002.46
2018-09-08T08:39:49.559Z,1002.4
2018-09-08T08:40:59.682Z,1002.4
2018-09-08T08:42:09.819Z,1002.42
2018-09-08T08:43:20.229Z,1002.47
2018-09-08T08:44:30.604Z,1002.46
2018-09-08T08:45:40.742Z,1002.49
2018-09-08T08:46:50.819Z,1002.4
2018-09-08T08:48:00.898Z,1002.46
2018-09-08T08:49:10.976Z,1002.42
2018-09-08T08:50:21.113Z,1002.43
2018-09-08T08:51:30.671Z,1002.48
2018-09-08T08:52:40.515Z,1002.48
2018-09-08T08:53:51.122Z,1002.45
2018-09-08T08:55:01.213Z,1002.42
2018-09-08T08:56:11.053Z,1002.45
2018-09-08T08:57:21.198Z,1002.4
2018-09-08T08:58:31.096Z,1002.47
2018-09-08T08:59:41.204Z,1002.47
2018-09-08T09:00:50.761Z,1002.42
2018-09-08T09:02:00.918Z,1002.38
2018-09-08T09:03:11.011Z,1002.41
2018-09-08T09:04:21.129Z,1002.38
2018-09-08T09:05:31.240Z,1002.4
2018-09-08T09:06:41.340Z,1002.41
2018-09-08T09:07:51.409Z,1002.37
2018-09-08T09:09:01.560Z,1002.35
2018-09-08T09:10:11.859Z,1002.36
2018-09-08T09:11:22.025Z,1002.34
2018-09-08T09:12:32.549Z,1002.37
2018-09-08T09:13:42.794Z,1002.35
2018-09-08T09:14:52.891Z,1002.32
2018-09-08T09:16:03.591Z,1002.34
2018-09-08T09:17:13.684Z,1002.37
2018-09-08T09:18:23.776Z,1002.43
2018-09-08T09:19:35.479Z,1002.37
2018-09-08T09:20:45.640Z,1002.4
2018-09-08T09:21:55.462Z,1002.4
2018-09-08T09:23:06.117Z,1002.4
2018-09-08T09:24:17.370Z,1002.37
2018-09-08T09:25:30.370Z,1002.34
2018-09-08T09:26:40.197Z,1002.33
2018-09-08T09:27:50.310Z,1002.36
2018-09-08T09:29:00.967Z,1002.44
2018-09-08T09:30:11.074Z,1002.32
2018-09-08T09:31:21.174Z,1002.34
2018-09-08T09:32:31.275Z,1002.38
2018-09-08T09:33:41.377Z,1002.34
2018-09-08T09:34:51.515Z,1002.34
2018-09-08T09:36:01.603Z,1002.34
2018-09-08T09:37:11.743Z,1002.31
2018-09-08T09:38:22.188Z,1002.37
2018-09-08T09:39:32.026Z,1002.37
2018-09-08T09:40:42.160Z,1002.35
2018-09-08T09:41:52.277Z,1002.37
2018-09-08T09:43:02.378Z,1002.35
2018-09-08T09:44:12.018Z,1002.24
2018-09-08T09:45:22.560Z,1002.26
2018-09-08T09:46:32.178Z,1002.37
2018-09-08T09:47:42.009Z,1002.3
2018-09-08T09:48:52.117Z,1002.23
2018-09-08T09:50:02.248Z,1002.27
2018-09-08T09:51:12.307Z,1002.21
2018-09-08T09:52:22.196Z,1002.19
2018-09-08T09:53:32.296Z,1002.22
2018-09-08T09:54:42.158Z,1002.34
2018-09-08T09:55:52.524Z,1002.28
2018-09-08T09:57:02.889Z,1002.3
2018-09-08T09:58:12.995Z,1002.23
2018-09-08T09:59:23.099Z,1002.19
2018-09-08T10:00:33.187Z,1002.33
2018-09-08T10:01:43.312Z,1002.2
2018-09-08T10:02:53.402Z,1002.19
2018-09-08T10:04:03.501Z,1002.23
2018-09-08T10:05:13.602Z,1002.26
2018-09-08T10:06:23.722Z,1002.19
2018-09-08T10:07:34.114Z,1002.13
2018-09-08T10:08:44.228Z,1002.23
2018-09-08T10:09:54.384Z,1002.23
2018-09-08T10:11:04.676Z,1002.21
2018-09-08T10:12:14.583Z,1002.2
2018-09-08T10:13:24.726Z,1002.2
2018-09-08T10:14:34.568Z,1002.16
2018-09-08T10:15:45.072Z,1002.24
2018-09-08T10:16:54.915Z,1002.2
2018-09-08T10:18:05.015Z,1002.2
2018-09-08T10:19:15.118Z,1002.17
2018-09-08T10:20:25.500Z,1002.24
2018-09-08T10:21:35.643Z,1002.2
2018-09-08T10:22:45.494Z,1002.15
2018-09-08T10:24:05.152Z,1002.17
2018-09-08T10:25:15.694Z,1002.16
2018-09-08T10:26:25.580Z,1002.22
2018-09-08T10:27:35.957Z,1002.19
2018-09-08T10:28:46.065Z,1002.21
2018-09-08T10:29:56.170Z,1002.22
2018-09-08T10:31:07.832Z,1002.17
2018-09-08T10:32:18.327Z,1002.17
2018-09-08T10:33:28.536Z,1002.2
2018-09-08T10:34:38.404Z,1002.23
2018-09-08T10:35:48.797Z,1002.3
2018-09-08T10:36:58.901Z,1002.23
2018-09-08T10:38:09.034Z,1002.22
2018-09-08T10:39:19.373Z,1002.27
2018-09-08T10:40:29.478Z,1002.3
2018-09-08T10:41:39.296Z,1002.28
2018-09-08T10:42:49.401Z,1002.3
2018-09-08T10:43:59.485Z,1002.22
2018-09-08T10:45:09.305Z,1002.27
2018-09-08T10:46:18.894Z,1002.29
2018-09-08T10:47:28.999Z,1002.29
2018-09-08T10:48:39.126Z,1002.26
2018-09-08T10:49:49.003Z,1002.32
2018-09-08T10:50:59.137Z,1002.32
2018-09-08T10:52:08.963Z,1002.39
2018-09-08T10:53:18.779Z,1002.32
2018-09-08T10:54:28.869Z,1002.3
2018-09-08T10:55:39.219Z,1002.29
2018-09-08T10:56:49.320Z,1002.33
2018-09-08T10:57:59.440Z,1002.26
2018-09-08T10:59:09.332Z,1002.3
2018-09-08T11:00:19.425Z,1002.25
2018-09-08T11:01:29.762Z,1002.26
2018-09-08T11:02:40.863Z,1002.22
2018-09-08T11:03:53.555Z,1002.28
2018-09-08T11:05:03.653Z,1002.23
2018-09-08T11:06:13.792Z,1002.36
2018-09-08T11:07:23.624Z,1002.31
2018-09-08T11:08:33.718Z,1002.24
2018-09-08T11:09:43.551Z,1002.25
2018-09-08T11:10:53.380Z,1002.27
2018-09-08T11:12:03.330Z,1002.26
2018-09-08T11:13:13.425Z,1002.19
2018-09-08T11:14:23.526Z,1002.24
2018-09-08T11:15:33.607Z,1002.17
2018-09-08T11:16:43.755Z,1002.21
2018-09-08T11:17:53.844Z,1002.22
2018-09-08T11:19:04.002Z,1002.23
2018-09-08T11:20:14.120Z,1002.17
2018-09-08T11:21:23.935Z,1002.22
2018-09-08T11:22:34.045Z,1002.16
2018-09-08T11:23:44.155Z,1002.22
2018-09-08T11:24:54.342Z,1002.26
2018-09-08T11:26:04.183Z,1002.23
2018-09-08T11:27:14.264Z,1002.26
2018-09-08T11:28:24.099Z,1002.25
2018-09-08T11:29:33.938Z,1002.27
2018-09-08T11:30:44.116Z,1002.27
2018-09-08T11:31:54.325Z,1002.23
2018-09-08T11:33:04.420Z,1002.26
2018-09-08T11:34:14.517Z,1002.26
2018-09-08T11:35:24.601Z,1002.23
2018-09-08T11:36:34.487Z,1002.26
2018-09-08T11:37:44.584Z,1002.22
2018-09-08T11:38:54.738Z,1002.33
2018-09-08T11:40:04.842Z,1002.23
2018-09-08T11:41:14.670Z,1002.24
2018-09-08T11:42:24.212Z,1002.2
2018-09-08T11:43:34.328Z,1002.19
2018-09-08T11:44:44.216Z,1002.18
2018-09-08T11:45:54.613Z,1002.16
2018-09-08T11:47:04.704Z,1002.23
2018-09-08T11:48:14.874Z,1002.28
2018-09-08T11:49:25.023Z,1002.25
2018-09-08T11:50:35.347Z,1002.17
2018-09-08T11:51:45.440Z,1002.24
2018-09-08T11:52:55.333Z,1002.2
2018-09-08T11:54:05.590Z,1002.19
2018-09-08T11:55:15.687Z,1002.22
2018-09-08T11:56:25.767Z,1002.19
2018-09-08T11:57:35.880Z,1002.11
2018-09-08T11:58:45.985Z,1002.06
2018-09-08T11:59:56.103Z,1002.11
2018-09-08T12:01:06.261Z,1002.07
2018-09-08T12:02:16.397Z,1002.11
2018-09-08T12:03:26.818Z,1002.22
2018-09-08T12:04:36.939Z,1002.15
2018-09-08T12:05:46.990Z,1002.23
2018-09-08T12:06:57.122Z,1002.31
2018-09-08T12:08:07.310Z,1002.21
2018-09-08T12:09:17.710Z,1002.22
2018-09-08T12:10:27.822Z,1002.21
2018-09-08T12:11:38.049Z,1002.16
2018-09-08T12:12:47.922Z,1002.22
2018-09-08T12:13:58.070Z,1002.19
2018-09-08T12:15:08.556Z,1002.19
2018-09-08T12:16:18.682Z,1002.19
2018-09-08T12:17:29.022Z,1002.19
2018-09-08T12:18:39.164Z,1002.11
2018-09-08T12:19:49.238Z,1002.13
2018-09-08T12:20:59.321Z,1002.12
2018-09-08T12:22:09.187Z,1002.1
2018-09-08T12:23:19.973Z,1002.09
2018-09-08T12:24:30.080Z,1002.11
2018-09-08T12:25:39.918Z,1002.12
2018-09-08T12:26:49.745Z,1002.08
2018-09-08T12:27:59.838Z,1002.07
2018-09-08T12:29:09.987Z,1002.06
2018-09-08T12:30:20.129Z,1002.01
2018-09-08T12:31:30.533Z,1002.02
2018-09-08T12:32:40.664Z,1002.06
2018-09-08T12:33:50.763Z,1002.13
2018-09-08T12:35:00.870Z,1002.17
2018-09-08T12:36:11.195Z,1002.08
2018-09-08T12:37:21.282Z,1002.11
2018-09-08T12:38:31.433Z,1002.15
2018-09-08T12:39:41.710Z,1002.12
2018-09-08T12:40:51.849Z,1002.1
2018-09-08T12:42:01.923Z,1002.07
2018-09-08T12:43:11.755Z,1002.07
2018-09-08T12:44:21.584Z,1002.07
2018-09-08T12:45:31.686Z,1002.13
2018-09-08T12:46:41.289Z,1002.04
2018-09-08T12:47:51.153Z,1002.03
2018-09-08T12:49:01.254Z,1002.06
2018-09-08T12:50:11.351Z,1002.01
2018-09-08T12:51:21.479Z,1002.01
2018-09-08T12:52:31.660Z,1002.01
2018-09-08T12:53:41.523Z,1001.96
2018-09-08T12:54:51.610Z,1001.97
2018-09-08T12:56:01.724Z,1001.94
2018-09-08T12:57:11.823Z,1001.93
2018-09-08T12:58:21.979Z,1001.94
2018-09-08T12:59:32.084Z,1001.95
2018-09-08T13:00:42.301Z,1001.89
2018-09-08T13:01:52.441Z,1001.85
2018-09-08T13:03:02.273Z,1001.86
2018-09-08T13:04:12.410Z,1001.79
2018-09-08T13:05:22.268Z,1001.74
2018-09-08T13:06:32.385Z,1001.82
2018-09-08T13:07:42.511Z,1001.84
2018-09-08T13:08:52.994Z,1001.85
2018-09-08T13:10:03.789Z,1001.8
2018-09-08T13:11:13.920Z,1001.84
2018-09-08T13:12:24.080Z,1001.75
2018-09-08T13:13:33.662Z,1001.78
2018-09-08T13:14:43.493Z,1001.7
2018-09-08T13:15:53.578Z,1001.81
2018-09-08T13:17:03.663Z,1001.81
2018-09-08T13:18:13.525Z,1001.78
2018-09-08T13:19:23.093Z,1001.78
2018-09-08T13:20:32.939Z,1001.78
2018-09-08T13:21:43.103Z,1001.75
2018-09-08T13:22:53.214Z,1001.74
2018-09-08T13:24:03.821Z,1001.73
2018-09-08T13:25:14.303Z,1001.82
2018-09-08T13:26:24.412Z,1001.71
2018-09-08T13:27:34.255Z,1001.75
2018-09-08T13:28:43.824Z,1001.72
2018-09-08T13:29:53.923Z,1001.71
2018-09-08T13:31:04.028Z,1001.75
2018-09-08T13:32:14.120Z,1001.73
2018-09-08T13:33:24.223Z,1001.75
2018-09-08T13:34:34.568Z,1001.73
2018-09-08T13:35:44.705Z,1001.74
2018-09-08T13:36:54.799Z,1001.76
2018-09-08T13:38:04.911Z,1001.81
2018-09-08T13:39:14.791Z,1001.76
2018-09-08T13:40:25.008Z,1001.75
2018-09-08T13:41:35.101Z,1001.77
2018-09-08T13:42:44.939Z,1001.75
2018-09-08T13:43:55.054Z,1001.68
2018-09-08T13:45:05.189Z,1001.68
2018-09-08T13:46:15.314Z,1001.68
2018-09-08T13:47:24.944Z,1001.72
2018-09-08T13:48:35.161Z,1001.7
2018-09-08T13:49:44.994Z,1001.76
2018-09-08T13:50:55.137Z,1001.74
2018-09-08T13:52:04.979Z,1001.74
2018-09-08T13:53:15.108Z,1001.75
2018-09-08T13:54:25.199Z,1001.7
2018-09-08T13:55:34.763Z,1001.63
2018-09-08T13:56:44.586Z,1001.62
2018-09-08T13:57:54.420Z,1001.62
2018-09-08T13:59:04.529Z,1001.67
2018-09-08T14:00:14.620Z,1001.65
2018-09-08T14:01:24.730Z,1001.64
2018-09-08T14:02:34.620Z,1001.59
2018-09-08T14:03:44.474Z,1001.69
2018-09-08T14:04:54.316Z,1001.67
2018-09-08T14:06:04.403Z,1001.71
2018-09-08T14:07:14.249Z,1001.62
2018-09-08T14:08:24.393Z,1001.63
2018-09-08T14:09:34.488Z,1001.62
2018-09-08T14:10:44.580Z,1001.6
2018-09-08T14:11:54.703Z,1001.59
2018-09-08T14:13:04.795Z,1001.56
2018-09-08T14:14:14.915Z,1001.63
2018-09-08T14:15:25.049Z,1001.58
2018-09-08T14:16:35.488Z,1001.56
2018-09-08T14:17:45.591Z,1001.55
2018-09-08T14:18:55.690Z,1001.52
2018-09-08T14:20:05.837Z,1001.58
2018-09-08T14:21:15.648Z,1001.55
2018-09-08T14:22:25.491Z,1001.56
2018-09-08T14:23:35.638Z,1001.48
2018-09-08T14:24:45.732Z,1001.57
2018-09-08T14:25:55.954Z,1001.59
2018-09-08T14:27:06.041Z,1001.56
2018-09-08T14:28:16.148Z,1001.57
2018-09-08T14:29:25.759Z,1001.55
2018-09-08T14:30:35.878Z,1001.52
2018-09-08T14:31:45.508Z,1001.54
2018-09-08T14:32:55.605Z,1001.55
2018-09-08T14:34:05.713Z,1001.47
2018-09-08T14:35:15.806Z,1001.49
2018-09-08T14:36:25.892Z,1001.54
2018-09-08T14:37:35.833Z,1001.53
2018-09-08T14:38:45.922Z,1001.52
2018-09-08T14:39:55.740Z,1001.49
2018-09-08T14:41:05.831Z,1001.59
2018-09-08T14:42:15.954Z,1001.52
2018-09-08T14:43:25.904Z,1001.52
2018-09-08T14:44:36.011Z,1001.47
2018-09-08T14:45:45.850Z,1001.5
2018-09-08T14:46:55.965Z,1001.48
2018-09-08T14:48:06.115Z,1001.52